Time;durP1;ratioP1;P1;durP2;ratioP2;P2;SDS_P1;SDS_P2;PMS_P1;PMS_P2;Temp;Humidity;BMP_temperature;BMP_pressure;BME280_temperature;BME280_humidity;BME280_pressure;Samples;Min_cycle;Max_cycle;Signal;HPM_P1;HPM_P2
2022/09/14 00:02:13;;;;;;;5.22;2.72;;;;;;;;;;4987590;28;20045;-70
2022/09/14 00:04:40;;;;;;;4.38;2.55;;;;;;;;;;5001142;28;20137;-70
2022/09/14 00:07:06;;;;;;;6.03;2.65;;;;;;;;;;5000709;28;20050;-70
2022/09/14 00:09:31;;;;;;;3.35;2.78;;;;;;;;;;5001472;28;20431;-70
2022/09/14 00:11:57;;;;;;;3.95;2.70;;;;;;;;;;4972501;28;20052;-70
2022/09/14 00:14:22;;;;;;;6.70;2.95;;;;;;;;;;5001214;28;20062;-69
2022/09/14 00:16:49;;;;;;;4.55;2.70;;;;;;;;;;4994925;28;20038;-70
2022/09/14 00:19:21;;;;;;;7.57;2.70;;;;;;;;;;4999766;28;20077;-69
2022/09/14 00:21:50;;;;;;;3.40;3.10;;;;;;;;;;5001114;28;20069;-69
2022/09/14 00:24:16;;;;;;;5.50;2.75;;;;;;;;;;4997709;28;20108;-69
2022/09/14 00:26:41;;;;;;;5.68;2.70;;;;;;;;;;5001031;28;20058;-70
2022/09/14 00:29:07;;;;;;;9.05;2.50;;;;;;;;;;4993440;28;20046;-70
2022/09/14 00:31:36;;;;;;;4.88;2.58;;;;;;;;;;4995082;28;20137;-70
2022/09/14 00:34:04;;;;;;;5.30;2.80;;;;;;;;;;4995072;28;20467;-70
2022/09/14 00:36:31;;;;;;;4.68;3.20;;;;;;;;;;5001361;28;20128;-70
2022/09/14 00:38:56;;;;;;;4.25;2.95;;;;;;;;;;5000601;28;20124;-69
2022/09/14 00:41:28;;;;;;;6.13;3.20;;;;;;;;;;5004789;28;20112;-70
2022/09/14 00:43:55;;;;;;;;;;;;;;;;;;4997603;28;20050;-71
2022/09/14 00:46:22;;;;;;;5.43;2.80;;;;;;;;;;4991234;28;20054;-70
2022/09/14 00:48:48;;;;;;;5.07;2.65;;;;;;;;;;4997582;28;20045;-70
2022/09/14 00:51:15;;;;;;;9.27;3.05;;;;;;;;;;4993203;28;20411;-70
2022/09/14 00:53:42;;;;;;;5.05;2.90;;;;;;;;;;5001274;28;20057;-70
2022/09/14 00:56:07;;;;;;;10.27;3.17;;;;;;;;;;4998944;28;20049;-70
2022/09/14 00:58:32;;;;;;;4.22;2.78;;;;;;;;;;5001048;28;20042;-70
2022/09/14 01:00:58;;;;;;;7.40;2.83;;;;;;;;;;4994177;28;20057;-70
2022/09/14 01:03:24;;;;;;;4.60;2.75;;;;;;;;;;5000857;28;21029;-69
2022/09/14 01:06:04;;;;;;;4.70;2.85;;;;;;;;;;4992565;28;20073;-70
2022/09/14 01:08:38;;;;;;;4.97;2.50;;;;;;;;;;4992832;28;20081;-70
2022/09/14 01:11:13;;;;;;;6.60;2.65;;;;;;;;;;4990730;28;20097;-70
2022/09/14 01:13:56;;;;;;;7.60;2.58;;;;;;;;;;4974840;28;20092;-70
2022/09/14 01:17:03;;;;;;;2.90;2.70;;;;;;;;;;4985043;28;20546;-70
2022/09/14 01:19:46;;;;;;;3.80;2.40;;;;;;;;;;4983484;28;20061;-70
2022/09/14 01:22:20;;;;;;;4.95;2.30;;;;;;;;;;4991554;28;20065;-70
2022/09/14 01:24:51;;;;;;;5.15;2.50;;;;;;;;;;4995369;28;20454;-70
2022/09/14 01:27:32;;;;;;;5.35;2.35;;;;;;;;;;4992574;28;20054;-70
2022/09/14 01:30:18;;;;;;;3.90;2.30;;;;;;;;;;4986477;28;20056;-70
2022/09/14 01:32:56;;;;;;;4.93;2.15;;;;;;;;;;4985901;28;20061;-70
2022/09/14 01:35:31;;;;;;;4.22;2.00;;;;;;;;;;4990190;28;20045;-70
2022/09/14 01:38:01;;;;;;;5.72;2.60;;;;;;;;;;4987827;28;20426;-70
2022/09/14 01:40:41;;;;;;;3.28;1.92;;;;;;;;;;4994653;28;20844;-70
2022/09/14 01:43:09;;;;;;;2.17;1.90;;;;;;;;;;5000498;28;20058;-70
2022/09/14 01:45:40;;;;;;;2.88;2.00;;;;;;;;;;4990634;28;20046;-70
2022/09/14 01:48:09;;;;;;;2.80;2.30;;;;;;;;;;4999005;28;20045;-70
2022/09/14 01:50:40;;;;;;;7.85;2.28;;;;;;;;;;4997605;28;20137;-70
2022/09/14 01:53:12;;;;;;;2.55;2.13;;;;;;;;;;4999225;28;20038;-70
2022/09/14 01:55:44;;;;;;;2.83;2.00;;;;;;;;;;4999794;28;20045;-70
2022/09/14 01:58:14;;;;;;;;;;;;;;;;;;4999768;28;20128;-69
2022/09/14 02:00:44;;;;;;;2.67;2.13;;;;;;;;;;4995356;28;19968;-69
2022/09/14 02:06:57;;;;;;;2.85;2.60;;;;;;;;;;4990494;28;21069;-69
2022/09/14 02:09:25;;;;;;;2.38;2.15;;;;;;;;;;4999760;28;20066;-70
2022/09/14 02:11:52;;;;;;;2.78;2.10;;;;;;;;;;4999708;28;20061;-69
2022/09/14 02:14:18;;;;;;;5.57;2.45;;;;;;;;;;4990506;28;20050;-69
2022/09/14 02:16:45;;;;;;;2.60;2.17;;;;;;;;;;4987986;28;20133;-69
2022/09/14 02:19:12;;;;;;;5.82;2.42;;;;;;;;;;4991295;28;20062;-69
2022/09/14 02:21:38;;;;;;;2.75;2.00;;;;;;;;;;4999438;28;20108;-69
2022/09/14 02:24:04;;;;;;;2.03;1.90;;;;;;;;;;4998973;28;20050;-69
2022/09/14 02:26:31;;;;;;;3.30;1.92;;;;;;;;;;4994345;28;20065;-69
2022/09/14 02:28:56;;;;;;;3.33;2.58;;;;;;;;;;5000634;28;20061;-69
2022/09/14 02:31:49;;;;;;;1.98;1.80;;;;;;;;;;4997768;28;20045;-69
2022/09/14 02:34:32;;;;;;;7.63;1.85;;;;;;;;;;5002549;28;20042;-70
2022/09/14 02:37:17;;;;;;;2.30;2.10;;;;;;;;;;4997168;28;20049;-69
2022/09/14 02:39:45;;;;;;;3.60;2.40;;;;;;;;;;4995303;28;20501;-69
2022/09/14 02:42:16;;;;;;;5.25;2.05;;;;;;;;;;5002159;28;20057;-69
2022/09/14 02:45:16;;;;;;;2.80;2.40;;;;;;;;;;5003428;28;20103;-69
2022/09/14 02:48:05;;;;;;;5.97;2.10;;;;;;;;;;4994391;28;20064;-69
2022/09/14 02:50:55;;;;;;;3.55;2.05;;;;;;;;;;4984412;28;20129;-69
2022/09/14 02:53:44;;;;;;;4.93;2.20;;;;;;;;;;4995676;28;20053;-70
2022/09/14 02:56:11;;;;;;;3.42;2.13;;;;;;;;;;5001278;28;20053;-70
2022/09/14 02:58:41;;;;;;;3.05;2.13;;;;;;;;;;4997137;28;20054;-69
2022/09/14 03:01:14;;;;;;;3.55;2.00;;;;;;;;;;4996495;28;20046;-70
2022/09/14 03:03:40;;;;;;;4.95;2.10;;;;;;;;;;5002409;28;20135;-70
2022/09/14 03:06:05;;;;;;;4.43;2.17;;;;;;;;;;5001791;28;20092;-70
2022/09/14 03:08:32;;;;;;;4.28;2.10;;;;;;;;;;4998788;28;20049;-69
2022/09/14 03:10:57;;;;;;;4.80;2.25;;;;;;;;;;4988639;28;20130;-69
2022/09/14 03:13:23;;;;;;;2.75;2.55;;;;;;;;;;4999569;28;20053;-69
2022/09/14 03:15:48;;;;;;;5.28;2.72;;;;;;;;;;4994697;28;20057;-70
2022/09/14 03:18:14;;;;;;;12.35;3.17;;;;;;;;;;4997851;28;20089;-70
2022/09/14 03:20:39;;;;;;;6.75;2.75;;;;;;;;;;4994110;28;20066;-70
2022/09/14 03:23:06;;;;;;;3.03;2.53;;;;;;;;;;4989168;28;20574;-70
2022/09/14 03:25:38;;;;;;;8.10;3.25;;;;;;;;;;4998022;28;20049;-70
2022/09/14 03:28:05;;;;;;;4.85;3.30;;;;;;;;;;5001217;28;20119;-70
2022/09/14 03:30:31;;;;;;;3.95;3.10;;;;;;;;;;4998576;28;20049;-69
2022/09/14 03:32:58;;;;;;;5.15;3.08;;;;;;;;;;5001637;28;20057;-69
2022/09/14 03:35:23;;;;;;;3.95;3.22;;;;;;;;;;5002244;28;20439;-69
2022/09/14 03:37:49;;;;;;;4.22;2.72;;;;;;;;;;5001651;28;20058;-69
2022/09/14 03:40:15;;;;;;;8.80;2.60;;;;;;;;;;4994966;28;20081;-69
2022/09/14 03:42:45;;;;;;;3.67;2.92;;;;;;;;;;4995563;28;20045;-69
2022/09/14 03:45:12;;;;;;;5.63;2.53;;;;;;;;;;5000131;28;20128;-69
2022/09/14 03:47:39;;;;;;;5.25;3.13;;;;;;;;;;4997708;28;20956;-69
2022/09/14 03:50:06;;;;;;;5.05;2.90;;;;;;;;;;4999493;28;20050;-69
2022/09/14 03:52:32;;;;;;;2.95;2.50;;;;;;;;;;4992127;28;20053;-69
2022/09/14 03:54:58;;;;;;;9.73;2.72;;;;;;;;;;4990991;28;20045;-69
2022/09/14 03:57:23;;;;;;;4.40;2.28;;;;;;;;;;5001191;28;20192;-70
2022/09/14 03:59:49;;;;;;;8.70;2.83;;;;;;;;;;4969242;28;20407;-69
2022/09/14 04:02:55;;;;;;;4.80;2.90;;;;;;;;;;4995041;28;20188;-71
2022/09/14 04:05:20;;;;;;;10.80;3.28;;;;;;;;;;4996769;28;20046;-71
2022/09/14 04:07:45;;;;;;;6.53;2.90;;;;;;;;;;4997197;28;20045;-70
2022/09/14 04:10:11;;;;;;;3.97;3.40;;;;;;;;;;5037689;23;20939;-71
2022/09/14 04:13:01;;;;;;;6.70;2.85;;;;;;;;;;5059476;28;20068;-71
2022/09/14 04:15:27;;;;;;;4.15;3.03;;;;;;;;;;5042268;28;20048;-71
2022/09/14 04:17:52;;;;;;;7.43;3.00;;;;;;;;;;5041127;28;20048;-71
2022/09/14 04:20:18;;;;;;;3.38;2.65;;;;;;;;;;5040602;28;20147;-71
2022/09/14 04:22:44;;;;;;;3.42;2.83;;;;;;;;;;5041251;28;20130;-71
2022/09/14 04:25:10;;;;;;;7.78;3.03;;;;;;;;;;5019362;28;20156;-71
2022/09/14 04:27:36;;;;;;;7.78;3.17;;;;;;;;;;5041484;28;20118;-71
2022/09/14 04:30:04;;;;;;;4.75;2.80;;;;;;;;;;5040680;28;20036;-71
2022/09/14 04:32:29;;;;;;;3.70;2.80;;;;;;;;;;5041332;28;20903;-71
2022/09/14 04:34:54;;;;;;;7.03;2.90;;;;;;;;;;5040652;28;20494;-71
2022/09/14 04:37:20;;;;;;;4.15;2.53;;;;;;;;;;5040453;28;20077;-71
2022/09/14 04:39:45;;;;;;;5.78;3.30;;;;;;;;;;5041212;28;20049;-71
2022/09/14 04:42:10;;;;;;;3.65;3.00;;;;;;;;;;5039966;28;20053;-71
2022/09/14 04:44:36;;;;;;;3.55;2.85;;;;;;;;;;5040945;28;20051;-71
2022/09/14 04:47:02;;;;;;;8.27;2.70;;;;;;;;;;5041429;28;20072;-72
2022/09/14 04:49:27;;;;;;;6.35;2.80;;;;;;;;;;5040163;28;20044;-72
2022/09/14 04:51:52;;;;;;;5.35;2.53;;;;;;;;;;5041122;28;20386;-72
2022/09/14 04:54:18;;;;;;;3.78;2.72;;;;;;;;;;5039973;28;20048;-71
2022/09/14 04:56:44;;;;;;;5.82;2.80;;;;;;;;;;5040735;28;20076;-72
2022/09/14 04:59:10;;;;;;;14.13;3.42;;;;;;;;;;5040437;28;20052;-72
2022/09/14 05:01:39;;;;;;;6.13;2.85;;;;;;;;;;5018853;28;20529;-72
2022/09/14 05:04:05;;;;;;;7.97;2.97;;;;;;;;;;5036189;28;20051;-72
2022/09/14 05:06:33;;;;;;;4.13;3.35;;;;;;;;;;5040881;28;20041;-72
2022/09/14 05:09:00;;;;;;;2.97;2.72;;;;;;;;;;5041848;28;20138;-73
2022/09/14 05:11:28;;;;;;;4.22;2.72;;;;;;;;;;5039668;28;20513;-72
2022/09/14 05:13:56;;;;;;;3.22;2.92;;;;;;;;;;5040443;28;20461;-72
2022/09/14 05:16:25;;;;;;;12.60;3.08;;;;;;;;;;5038768;28;20056;-72
2022/09/14 05:18:53;;;;;;;5.53;3.00;;;;;;;;;;5038590;28;20051;-73
2022/09/14 05:21:20;;;;;;;6.35;3.22;;;;;;;;;;5037193;28;20037;-72
2022/09/14 05:23:46;;;;;;;8.05;2.85;;;;;;;;;;5039108;28;21047;-72
2022/09/14 05:26:13;;;;;;;11.90;3.03;;;;;;;;;;5038743;28;20073;-72
2022/09/14 05:28:39;;;;;;;5.45;2.95;;;;;;;;;;5038526;28;20049;-72
2022/09/14 05:31:09;;;;;;;10.48;3.15;;;;;;;;;;5039095;28;20067;-72
2022/09/14 05:33:35;;;;;;;5.93;3.08;;;;;;;;;;5040462;28;20187;-72
2022/09/14 05:36:03;;;;;;;11.68;3.05;;;;;;;;;;5040046;28;20492;-71
2022/09/14 05:38:30;;;;;;;7.65;3.05;;;;;;;;;;5039703;28;20414;-72
2022/09/14 05:40:56;;;;;;;11.75;3.22;;;;;;;;;;5039950;28;20052;-72
2022/09/14 05:47:09;;;;;;;6.85;2.70;;;;;;;;;;5040384;28;20134;-72
2022/09/14 05:49:34;;;;;;;9.93;3.35;;;;;;;;;;5039966;28;20068;-72
2022/09/14 05:52:00;;;;;;;5.00;3.20;;;;;;;;;;5039638;28;20037;-70
2022/09/14 05:54:26;;;;;;;3.28;2.55;;;;;;;;;;5035547;28;20053;-73
2022/09/14 05:56:51;;;;;;;3.13;2.42;;;;;;;;;;5038050;28;20187;-72
2022/09/14 05:59:17;;;;;;;6.53;2.25;;;;;;;;;;5035824;28;20049;-73
2022/09/14 06:01:42;;;;;;;4.65;2.10;;;;;;;;;;5036835;28;20234;-72
2022/09/14 06:04:10;;;;;;;5.70;2.08;;;;;;;;;;5049594;28;20108;-73
2022/09/14 06:06:35;;;;;;;2.60;1.90;;;;;;;;;;5027795;28;20498;-73
2022/09/14 06:09:02;;;;;;;7.25;1.83;;;;;;;;;;5045365;28;20072;-72
2022/09/14 06:11:30;;;;;;;5.07;1.60;;;;;;;;;;5045770;28;20048;-72
2022/09/14 06:13:56;;;;;;;7.10;2.03;;;;;;;;;;5043942;28;20517;-71
2022/09/14 06:16:23;;;;;;;4.95;1.73;;;;;;;;;;5023537;28;20141;-71
2022/09/14 06:18:49;;;;;;;8.07;2.53;;;;;;;;;;5042928;28;20462;-70
2022/09/14 06:21:18;;;;;;;3.65;1.85;;;;;;;;;;5043357;28;20033;-74
2022/09/14 06:23:44;;;;;;;2.92;2.17;;;;;;;;;;5046686;28;20091;-72
2022/09/14 06:26:10;;;;;;;5.60;1.73;;;;;;;;;;5049318;28;20128;-71
2022/09/14 06:28:36;;;;;;;5.03;1.73;;;;;;;;;;5051537;28;20191;-73
2022/09/14 06:31:03;;;;;;;4.53;1.70;;;;;;;;;;5047093;28;20588;-73
2022/09/14 06:33:29;;;;;;;22.30;2.70;;;;;;;;;;5047334;28;20102;-74
2022/09/14 06:36:08;;;;;;;2.10;1.73;;;;;;;;;;5044334;28;20049;-73
2022/09/14 06:38:34;;;;;;;3.47;1.85;;;;;;;;;;5008039;28;20071;-73
2022/09/14 06:41:03;;;;;;;2.28;1.90;;;;;;;;;;5042699;28;20048;-73
2022/09/14 06:43:31;;;;;;;2.60;1.98;;;;;;;;;;5043092;28;20073;-73
2022/09/14 06:46:09;;;;;;;11.35;2.20;;;;;;;;;;5043023;28;20049;-74
2022/09/14 06:48:44;;;;;;;6.68;2.05;;;;;;;;;;4992429;28;20056;-73
2022/09/14 06:51:23;;;;;;;4.20;1.80;;;;;;;;;;5042633;28;20072;-72
2022/09/14 06:53:49;;;;;;;7.35;1.50;;;;;;;;;;5042681;28;20853;-71
2022/09/14 06:56:15;;;;;;;5.32;1.30;;;;;;;;;;5042421;28;20040;-71
2022/09/14 06:58:41;;;;;;;2.70;1.42;;;;;;;;;;5042471;28;20049;-71
2022/09/14 07:01:11;;;;;;;3.90;1.60;;;;;;;;;;5042270;28;20049;-73
2022/09/14 07:03:38;;;;;;;4.83;1.53;;;;;;;;;;5042854;28;20045;-73
2022/09/14 07:06:07;;;;;;;4.63;1.38;;;;;;;;;;5042108;28;20055;-71
2022/09/14 07:08:33;;;;;;;2.55;1.52;;;;;;;;;;5042529;28;20060;-72
2022/09/14 07:10:59;;;;;;;2.95;1.40;;;;;;;;;;5020407;28;20053;-74
2022/09/14 07:13:26;;;;;;;3.05;1.50;;;;;;;;;;5041128;28;20044;-73
2022/09/14 07:15:52;;;;;;;2.70;1.40;;;;;;;;;;5042245;28;20434;-72
2022/09/14 07:18:17;;;;;;;3.10;1.50;;;;;;;;;;5041849;28;20041;-71
2022/09/14 07:20:42;;;;;;;6.03;1.60;;;;;;;;;;5042234;28;20501;-73
2022/09/14 07:23:08;;;;;;;10.38;1.55;;;;;;;;;;5041660;28;20049;-71
2022/09/14 07:25:33;;;;;;;9.15;1.80;;;;;;;;;;5042312;28;20079;-72
2022/09/14 07:28:00;;;;;;;6.70;1.65;;;;;;;;;;5041191;28;20465;-72
2022/09/14 07:30:26;;;;;;;6.65;1.90;;;;;;;;;;5043047;28;20044;-71
2022/09/14 07:32:53;;;;;;;4.03;1.52;;;;;;;;;;5041529;28;20045;-71
2022/09/14 07:35:18;;;;;;;4.88;1.20;;;;;;;;;;5042404;28;20049;-71
2022/09/14 07:37:44;;;;;;;2.63;1.40;;;;;;;;;;5041707;28;20045;-71
2022/09/14 07:40:10;;;;;;;5.95;1.55;;;;;;;;;;5041355;28;20040;-72
2022/09/14 07:42:36;;;;;;;2.92;1.20;;;;;;;;;;5041861;28;20106;-71
2022/09/14 07:45:04;;;;;;;6.85;1.55;;;;;;;;;;5041244;28;20064;-71
2022/09/14 07:47:30;;;;;;;7.43;1.42;;;;;;;;;;5041620;28;20730;-72
2022/09/14 07:49:55;;;;;;;5.78;1.40;;;;;;;;;;5041678;28;20041;-73
2022/09/14 07:52:21;;;;;;;3.05;1.10;;;;;;;;;;5041202;28;20096;-71
2022/09/14 07:54:46;;;;;;;2.35;0.98;;;;;;;;;;5041022;28;20158;-71
2022/09/14 07:57:12;;;;;;;4.55;1.25;;;;;;;;;;5040909;28;20076;-71
2022/09/14 07:59:37;;;;;;;4.43;1.40;;;;;;;;;;5041647;28;20087;-70
2022/09/14 08:02:10;;;;;;;6.45;1.30;;;;;;;;;;5041284;28;20083;-69
2022/09/14 08:04:38;;;;;;;6.22;1.20;;;;;;;;;;5041894;28;20057;-69
2022/09/14 08:07:04;;;;;;;3.42;1.60;;;;;;;;;;5040918;28;20060;-71
2022/09/14 08:09:29;;;;;;;4.78;0.98;;;;;;;;;;5042163;28;20048;-70
2022/09/14 08:11:56;;;;;;;6.22;1.23;;;;;;;;;;5043582;28;20055;-73
2022/09/14 08:14:21;;;;;;;8.27;1.17;;;;;;;;;;5042883;28;20048;-69
2022/09/14 08:16:47;;;;;;;3.60;1.02;;;;;;;;;;5043775;28;20053;-69
2022/09/14 08:19:15;;;;;;;3.78;1.20;;;;;;;;;;5041439;28;20040;-69
2022/09/14 08:21:42;;;;;;;6.00;1.02;;;;;;;;;;5041443;28;20498;-70
2022/09/14 08:24:10;;;;;;;3.00;1.30;;;;;;;;;;5042105;28;20465;-71
2022/09/14 08:26:35;;;;;;;3.13;1.00;;;;;;;;;;5040100;28;20049;-70
2022/09/14 08:29:03;;;;;;;3.97;1.20;;;;;;;;;;5041883;28;20052;-70
2022/09/14 08:31:29;;;;;;;6.53;1.75;;;;;;;;;;5044403;28;20068;-70
2022/09/14 08:33:57;;;;;;;4.88;1.40;;;;;;;;;;5043174;28;20513;-70
2022/09/14 08:36:25;;;;;;;2.08;0.95;;;;;;;;;;5041262;28;20079;-70
2022/09/14 08:38:50;;;;;;;1.85;1.10;;;;;;;;;;5041353;28;20125;-70
2022/09/14 08:41:34;;;;;;;2.03;1.20;;;;;;;;;;5022435;28;20601;-70
2022/09/14 08:44:14;;;;;;;5.78;1.30;;;;;;;;;;5042891;28;20056;-70
2022/09/14 08:47:04;;;;;;;5.32;1.25;;;;;;;;;;5035105;28;20596;-67
2022/09/14 08:49:40;;;;;;;6.00;1.23;;;;;;;;;;5042921;28;20127;-69
2022/09/14 08:52:13;;;;;;;5.07;1.10;;;;;;;;;;5040194;28;20151;-69
2022/09/14 08:54:38;;;;;;;4.30;1.33;;;;;;;;;;5034142;28;20052;-69
2022/09/14 08:57:26;;;;;;;6.43;1.00;;;;;;;;;;5042099;28;20727;-69
2022/09/14 09:00:10;;;;;;;4.25;1.10;;;;;;;;;;5042237;28;20040;-70
2022/09/14 09:03:04;;;;;;;4.15;1.35;;;;;;;;;;5032794;28;20053;-71
2022/09/14 09:05:29;;;;;;;4.68;1.23;;;;;;;;;;5041192;28;20064;-70
2022/09/14 09:08:02;;;;;;;5.00;1.50;;;;;;;;;;5041439;28;20053;-70
2022/09/14 09:10:29;;;;;;;4.18;1.17;;;;;;;;;;5006337;28;20490;-70
2022/09/14 09:12:58;;;;;;;3.63;1.10;;;;;;;;;;5042757;28;20106;-71
2022/09/14 09:15:28;;;;;;;6.70;1.23;;;;;;;;;;5044080;28;20048;-70
2022/09/14 09:17:58;;;;;;;5.93;1.42;;;;;;;;;;5043420;28;20048;-69
2022/09/14 09:20:31;;;;;;;6.17;1.40;;;;;;;;;;5042882;28;20088;-70
2022/09/14 09:23:11;;;;;;;6.38;1.40;;;;;;;;;;5043713;28;20129;-69
2022/09/14 09:26:04;;;;;;;3.72;1.40;;;;;;;;;;5043116;28;20060;-70
2022/09/14 09:28:30;;;;;;;8.40;1.45;;;;;;;;;;5025186;28;20150;-70
2022/09/14 09:31:05;;;;;;;4.45;1.52;;;;;;;;;;5042181;28;20111;-70
2022/09/14 09:33:51;;;;;;;2.97;1.20;;;;;;;;;;5039529;28;20045;-70
2022/09/14 09:36:20;;;;;;;5.10;1.35;;;;;;;;;;5020332;28;20437;-69
2022/09/14 09:38:45;;;;;;;4.00;1.30;;;;;;;;;;5022196;28;20536;-69
2022/09/14 09:41:20;;;;;;;6.45;1.30;;;;;;;;;;5022933;28;20081;-72
2022/09/14 09:44:05;;;;;;;3.28;1.38;;;;;;;;;;5023098;28;20064;-72
2022/09/14 09:46:45;;;;;;;3.47;1.35;;;;;;;;;;5039942;28;20044;-70
2022/09/14 09:49:27;;;;;;;5.95;1.17;;;;;;;;;;5043674;28;20498;-69
2022/09/14 09:51:54;;;;;;;4.85;1.00;;;;;;;;;;5043124;28;20060;-69
2022/09/14 09:54:27;;;;;;;5.15;1.38;;;;;;;;;;5041153;28;20056;-70
2022/09/14 09:56:57;;;;;;;2.80;1.35;;;;;;;;;;5041552;28;20052;-69
2022/09/14 09:59:29;;;;;;;4.60;1.45;;;;;;;;;;5042035;28;20045;-69
2022/09/14 10:02:12;;;;;;;3.97;1.30;;;;;;;;;;5041415;28;20057;-69
2022/09/14 10:04:53;;;;;;;6.45;1.30;;;;;;;;;;5019717;28;20060;-69
2022/09/14 10:07:21;;;;;;;3.40;1.25;;;;;;;;;;5039319;28;20106;-70
2022/09/14 10:09:59;;;;;;;3.13;1.25;;;;;;;;;;5043427;28;20437;-69
2022/09/14 10:12:26;;;;;;;3.83;1.20;;;;;;;;;;5042625;28;20055;-69
2022/09/14 10:15:17;;;;;;;2.88;1.15;;;;;;;;;;5043272;28;20044;-70
2022/09/14 10:18:10;;;;;;;6.70;1.10;;;;;;;;;;5025168;28;20094;-69
2022/09/14 10:20:38;;;;;;;2.78;1.20;;;;;;;;;;5024992;28;20142;-70
2022/09/14 10:23:16;;;;;;;7.00;1.25;;;;;;;;;;5043036;28;20501;-71
2022/09/14 10:25:41;;;;;;;3.22;1.35;;;;;;;;;;5043086;28;20041;-69
2022/09/14 10:28:26;;;;;;;6.35;1.70;;;;;;;;;;5042308;28;20068;-69
2022/09/14 10:31:10;;;;;;;4.38;1.27;;;;;;;;;;5043320;28;20532;-69
2022/09/14 10:33:36;;;;;;;4.03;1.27;;;;;;;;;;5043061;28;20724;-72
2022/09/14 10:36:08;;;;;;;1.20;0.80;;;;;;;;;;5042339;28;21016;-73
2022/09/14 10:38:40;;;;;;;3.80;1.20;;;;;;;;;;5043140;28;20045;-72
2022/09/14 10:41:30;;;;;;;6.35;1.10;;;;;;;;;;5042619;28;20691;-72
2022/09/14 10:44:24;;;;;;;3.00;1.50;;;;;;;;;;5042768;28;20135;-72
2022/09/14 10:46:59;;;;;;;2.20;1.30;;;;;;;;;;5027575;28;20053;-72
2022/09/14 10:49:46;;;;;;;3.55;1.60;;;;;;;;;;5042166;28;20404;-71
2022/09/14 10:52:49;;;;;;;3.03;1.42;;;;;;;;;;5021055;28;20520;-71
2022/09/14 10:55:33;;;;;;;4.72;1.10;;;;;;;;;;5042723;28;20047;-71
2022/09/14 10:58:27;;;;;;;5.22;1.25;;;;;;;;;;5042308;28;20084;-75
2022/09/14 11:01:15;;;;;;;5.13;1.10;;;;;;;;;;5042022;28;20045;-72
2022/09/14 11:04:00;;;;;;;11.70;1.77;;;;;;;;;;5041131;28;20056;-70
2022/09/14 11:06:35;;;;;;;3.63;1.30;;;;;;;;;;5041921;28;20041;-73
2022/09/14 11:09:14;;;;;;;4.70;1.02;;;;;;;;;;5042440;28;20049;-71
2022/09/14 11:11:58;;;;;;;2.05;1.00;;;;;;;;;;5042520;28;20531;-71
2022/09/14 11:14:54;;;;;;;3.72;1.30;;;;;;;;;;5041049;28;20036;-71
2022/09/14 11:17:28;;;;;;;7.07;1.58;;;;;;;;;;5042781;28;20041;-72
2022/09/14 11:20:14;;;;;;;3.75;1.38;;;;;;;;;;5042991;28;20131;-70
2022/09/14 11:22:45;;;;;;;3.55;1.15;;;;;;;;;;5039372;28;20048;-71
2022/09/14 11:25:16;;;;;;;4.53;1.10;;;;;;;;;;5041811;28;20060;-72
2022/09/14 11:27:42;;;;;;;5.05;1.13;;;;;;;;;;5041905;28;20060;-71
2022/09/14 11:30:15;;;;;;;6.85;1.20;;;;;;;;;;5041599;28;20045;-71
2022/09/14 11:32:47;;;;;;;4.07;1.20;;;;;;;;;;5042140;28;20056;-72
2022/09/14 11:35:38;;;;;;;9.23;1.33;;;;;;;;;;5041940;28;20902;-70
2022/09/14 11:38:17;;;;;;;3.72;1.25;;;;;;;;;;5036957;28;20057;-71
2022/09/14 11:40:51;;;;;;;2.92;1.20;;;;;;;;;;5042201;28;20497;-70
2022/09/14 11:43:26;;;;;;;4.18;1.35;;;;;;;;;;5042002;28;20052;-70
2022/09/14 11:45:59;;;;;;;2.50;1.20;;;;;;;;;;5042337;28;20072;-72
2022/09/14 11:48:36;;;;;;;3.90;1.02;;;;;;;;;;5021968;28;20049;-70
2022/09/14 11:51:08;;;;;;;2.70;1.27;;;;;;;;;;5041749;28;20134;-71
2022/09/14 11:53:34;;;;;;;2.88;1.35;;;;;;;;;;5023999;28;20111;-70
2022/09/14 11:56:00;;;;;;;6.60;1.20;;;;;;;;;;5041127;28;20049;-72
2022/09/14 11:58:30;;;;;;;3.75;1.45;;;;;;;;;;5039562;28;20052;-72
2022/09/14 12:01:35;;;;;;;7.20;1.55;;;;;;;;;;5035542;28;20413;-73
2022/09/14 12:04:03;;;;;;;4.75;1.65;;;;;;;;;;4967392;28;20058;-71
2022/09/14 12:06:29;;;;;;;5.00;1.17;;;;;;;;;;4965971;28;20046;-72
2022/09/14 12:09:22;;;;;;;2.70;1.30;;;;;;;;;;5002269;28;20152;-70
2022/09/14 12:11:56;;;;;;;5.30;1.50;;;;;;;;;;5011812;28;20065;-69
2022/09/14 12:18:09;;;;;;;4.35;1.40;;;;;;;;;;5039260;28;20056;-69
2022/09/14 12:20:41;;;;;;;7.85;1.80;;;;;;;;;;5039902;28;20049;-69
2022/09/14 12:23:32;;;;;;;3.13;1.27;;;;;;;;;;5039790;28;20087;-69
2022/09/14 12:26:09;;;;;;;4.60;1.30;;;;;;;;;;5037777;28;20052;-70
2022/09/14 12:28:34;;;;;;;5.07;1.30;;;;;;;;;;5007106;28;20051;-74
2022/09/14 12:31:03;;;;;;;5.70;1.17;;;;;;;;;;5039818;28;20049;-74
2022/09/14 12:33:31;;;;;;;3.90;1.33;;;;;;;;;;5040671;28;20044;-74
2022/09/14 12:36:09;;;;;;;5.50;1.27;;;;;;;;;;5019244;28;20124;-74
2022/09/14 12:38:53;;;;;;;10.40;1.30;;;;;;;;;;5021800;28;20135;-72
2022/09/14 12:41:19;;;;;;;3.53;1.40;;;;;;;;;;5039274;28;20095;-74
2022/09/14 12:43:47;;;;;;;3.85;1.40;;;;;;;;;;5039014;28;20654;-74
2022/09/14 12:46:18;;;;;;;6.40;1.27;;;;;;;;;;5040458;28;20364;-73
2022/09/14 12:48:47;;;;;;;11.65;1.85;;;;;;;;;;5018502;28;20049;-73
2022/09/14 12:51:31;;;;;;;6.80;1.30;;;;;;;;;;5036289;28;20416;-72
2022/09/14 12:54:28;;;;;;;3.28;1.27;;;;;;;;;;5040588;28;20098;-75
2022/09/14 12:57:12;;;;;;;4.05;1.50;;;;;;;;;;4997970;28;20052;-71
2022/09/14 12:59:53;;;;;;;7.93;1.50;;;;;;;;;;5040380;28;20402;-71
2022/09/14 13:03:03;;;;;;;5.18;1.50;;;;;;;;;;5041009;28;21182;-71
2022/09/14 13:05:32;;;;;;;3.00;1.38;;;;;;;;;;5041567;28;20099;-71
2022/09/14 13:07:58;;;;;;;5.82;1.20;;;;;;;;;;5041657;28;20055;-70
2022/09/14 13:10:36;;;;;;;8.43;1.55;;;;;;;;;;5039499;28;20045;-73
2022/09/14 13:13:11;;;;;;;7.20;1.20;;;;;;;;;;5048448;28;20045;-71
2022/09/14 13:15:48;;;;;;;6.93;1.38;;;;;;;;;;5041367;28;20075;-72
2022/09/14 13:18:17;;;;;;;6.38;1.40;;;;;;;;;;5039530;28;20045;-70
2022/09/14 13:20:50;;;;;;;8.68;1.20;;;;;;;;;;5040789;28;20071;-73
2022/09/14 13:23:21;;;;;;;7.07;1.50;;;;;;;;;;5041671;28;20048;-72
2022/09/14 13:25:47;;;;;;;7.13;1.35;;;;;;;;;;5040856;28;20098;-73
2022/09/14 13:28:16;;;;;;;3.60;1.50;;;;;;;;;;5039811;28;20152;-72
2022/09/14 13:30:43;;;;;;;4.97;1.30;;;;;;;;;;5040971;28;20101;-72
2022/09/14 13:33:16;;;;;;;3.45;1.50;;;;;;;;;;5040885;28;20580;-71
2022/09/14 13:35:46;;;;;;;7.10;1.33;;;;;;;;;;5040356;28;20071;-72
2022/09/14 13:38:22;;;;;;;4.78;1.40;;;;;;;;;;5039075;28;20044;-72
2022/09/14 13:40:49;;;;;;;7.22;1.45;;;;;;;;;;5039595;28;20123;-72
2022/09/14 13:43:20;;;;;;;6.22;1.50;;;;;;;;;;5040014;28;20579;-73
2022/09/14 13:45:47;;;;;;;3.13;1.30;;;;;;;;;;5041113;28;20049;-72
2022/09/14 13:48:15;;;;;;;4.35;1.05;;;;;;;;;;5038208;28;20045;-74
2022/09/14 13:50:46;;;;;;;6.10;1.10;;;;;;;;;;5018878;28;20956;-72
2022/09/14 13:53:44;;;;;;;2.80;1.23;;;;;;;;;;5036551;28;20059;-72
2022/09/14 13:56:25;;;;;;;6.40;1.40;;;;;;;;;;5039248;28;20041;-73
2022/09/14 13:59:05;;;;;;;7.68;1.42;;;;;;;;;;5039016;28;20637;-72
2022/09/14 14:01:34;;;;;;;4.78;1.33;;;;;;;;;;5039021;28;20509;-70
2022/09/14 14:04:00;;;;;;;2.60;1.00;;;;;;;;;;5039130;28;20147;-75
2022/09/14 14:06:28;;;;;;;5.35;1.05;;;;;;;;;;5039702;28;20140;-72
2022/09/14 14:09:06;;;;;;;4.63;1.20;;;;;;;;;;5039315;28;20152;-73
2022/09/14 14:11:36;;;;;;;2.05;1.55;;;;;;;;;;5039139;28;20041;-73
2022/09/14 14:14:14;;;;;;;7.95;1.30;;;;;;;;;;5018079;28;20513;-74
2022/09/14 14:16:41;;;;;;;9.77;1.50;;;;;;;;;;5032462;28;20051;-74
2022/09/14 14:19:29;;;;;;;4.18;1.30;;;;;;;;;;5038983;28;20049;-71
2022/09/14 14:22:31;;;;;;;4.88;1.60;;;;;;;;;;5039491;28;20527;-71
2022/09/14 14:24:59;;;;;;;;;;;;;;;;;;4940116;28;20055;-71
2022/09/14 14:27:39;;;;;;;2.28;1.20;;;;;;;;;;5024393;28;19921;-72
2022/09/14 14:30:13;;;;;;;4.80;1.30;;;;;;;;;;5042481;28;20497;-73
2022/09/14 14:32:39;;;;;;;2.55;1.23;;;;;;;;;;5042769;28;20049;-73
2022/09/14 14:35:16;;;;;;;4.28;1.20;;;;;;;;;;5021420;28;20056;-72
2022/09/14 14:37:41;;;;;;;3.10;1.23;;;;;;;;;;5043045;28;20041;-72
2022/09/14 14:40:10;;;;;;;5.93;1.60;;;;;;;;;;5042456;28;20519;-71
2022/09/14 14:42:35;;;;;;;4.60;1.30;;;;;;;;;;5021019;28;20055;-70
2022/09/14 14:45:01;;;;;;;6.50;1.20;;;;;;;;;;5037379;28;20048;-72
2022/09/14 14:47:26;;;;;;;3.75;1.30;;;;;;;;;;5042906;28;20041;-71
2022/09/14 14:49:52;;;;;;;6.97;1.38;;;;;;;;;;5042927;28;20072;-71
2022/09/14 14:52:18;;;;;;;4.53;1.20;;;;;;;;;;5041423;28;20123;-72
2022/09/14 14:54:43;;;;;;;6.93;1.55;;;;;;;;;;5021597;28;20060;-72
2022/09/14 14:57:09;;;;;;;5.47;1.30;;;;;;;;;;5039389;28;20048;-70
2022/09/14 14:59:35;;;;;;;6.00;1.65;;;;;;;;;;5042996;28;20565;-72
2022/09/14 15:02:00;;;;;;;2.30;1.02;;;;;;;;;;5041773;28;20056;-75
2022/09/14 15:04:26;;;;;;;2.20;1.00;;;;;;;;;;5023599;28;20049;-71
2022/09/14 15:06:52;;;;;;;3.70;1.20;;;;;;;;;;5042619;28;20061;-73
2022/09/14 15:09:26;;;;;;;4.05;1.25;;;;;;;;;;5041907;28;20048;-71
2022/09/14 15:11:55;;;;;;;7.45;1.42;;;;;;;;;;5021165;28;20077;-72
2022/09/14 15:14:24;;;;;;;5.43;1.30;;;;;;;;;;5039726;28;20045;-73
2022/09/14 15:16:50;;;;;;;8.60;1.50;;;;;;;;;;5022272;28;20506;-74
2022/09/14 15:19:15;;;;;;;2.50;1.20;;;;;;;;;;5041798;28;20083;-74
2022/09/14 15:21:42;;;;;;;5.60;1.10;;;;;;;;;;5045269;28;20521;-72